createdAt,value
2022-09-15T00:19:14.016Z,3
2022-09-15T00:47:57.528Z,3
2022-09-15T01:46:47.230Z,3
2022-09-15T02:15:48.828Z,3
2022-09-15T02:44:38.358Z,3
2022-09-15T03:13:29.622Z,3
2022-09-15T03:42:25.200Z,3
2022-09-15T04:11:24.105Z,3
2022-09-15T04:40:15.510Z,3
2022-09-15T05:09:09.910Z,3
2022-09-15T05:37:25.080Z,4
2022-09-15T06:06:18.910Z,3
2022-09-15T07:05:11.891Z,3
2022-09-15T07:33:31.078Z,3
2022-09-15T08:02:13.519Z,3
2022-09-15T08:30:54.746Z,1
2022-09-15T09:28:52.307Z,4
2022-09-15T09:57:09.559Z,5
2022-09-15T10:25:58.959Z,4
2022-09-15T10:54:23.486Z,1
2022-09-15T11:22:49.783Z,3
2022-09-15T11:51:12.950Z,7
2022-09-15T12:48:16.195Z,7
2022-09-15T13:17:04.343Z,6
2022-09-15T13:45:58.263Z,7
2022-09-15T14:14:35.379Z,6
2022-09-15T14:43:05.233Z,7
2022-09-15T15:11:55.595Z,6
2022-09-15T15:40:33.778Z,6
2022-09-15T16:09:18.183Z,6
2022-09-15T16:37:58.118Z,6
2022-09-15T17:06:44.074Z,7
2022-09-15T17:35:18.483Z,7
2022-09-15T18:04:04.017Z,7
2022-09-15T18:32:36.785Z,8
2022-09-15T19:01:13.598Z,8
2022-09-15T19:29:43.767Z,8
2022-09-15T19:58:25.172Z,8
2022-09-15T20:55:51.532Z,10
2022-09-15T21:53:01.604Z,9
2022-09-15T22:21:40.136Z,9
2022-09-15T22:50:04.290Z,8
2022-09-15T23:18:41.721Z,10
2022-09-15T23:47:01.091Z,9
